• Join FlightAware (Why Join?)
  • Login
  • US Flag 
04:52AM EDT


 

Airport Tracker/Info


-or-


 

Live Flight TrackerFlight Track Log ✈ N724AE ✈ 16-Apr-2013 ✈ KBTR - KDFW

Flight Track Log - Related Links

Times and Time Zones

All times are in EDT time to prevent confusion due to time zone crossing. See the N724AE flight status page for this flight to view local times or setup timezone preferences in your user account.

Time Position Orientation Groundspeed Altitude Reporting Facility
EDT Latitude Longitude Course Direction KTS MPH feet Rate Location/Type
08:53AM 30.7167 -91.3345 270° West  Level FlightAware Approximate
08:54AM 30.7785 -91.3981 313° West  Level FlightAware Approximate
08:55AM 30.8396 -91.4722 323° Northwest  Level FlightAware Approximate
08:56AM 30.9103 -91.5339 323° Northwest  Level FlightAware Approximate
08:57AM 30.9496 -91.6349 294° West  Level Estimated
08:58AM 30.9889 -91.7360 294° West  Level Estimated
08:59AM 31.0251 -91.8291 294° West  Level Estimated
09:00AM 31.0611 -91.9224 294° West  Level Estimated
09:01AM 31.0971 -92.0157 294° West  Level Estimated
09:02AM 31.1330 -92.1090 294° West  Level Estimated
09:02AM 30.9389 -91.9906 297° West 358 412 22,300  Level Houston Center
09:03AM 31.1689 -92.2025 294° West  Level Estimated
09:03AM 30.9853 -92.0953 297° West 362 417 24,000  Level Houston Center
09:04AM 31.2047 -92.2960 294° West  Level Estimated
09:04AM 31.0317 -92.1978 298° West 358 412 25,700  Level Houston Center
09:05AM 31.1827 -92.4043 257° West  Level FlightAware Approximate
09:05AM 31.0778 -92.3022 297° West 361 415 27,400  Level Houston Center
09:06AM 31.2226 -92.5053 295° West  Level Estimated
09:06AM 31.1247 -92.4061 298° West 360 414 28,400  Level Houston Center
09:07AM 31.2624 -92.6065 297° West  Level Estimated
09:07AM 31.1719 -92.5142 297° West 367 422 29,400  Level Houston Center
09:08AM 31.2228 -92.6275 298° West 379 436 30,400 1,020 Climbing Houston Center
09:09AM 31.2744 -92.7425 298° West 391 450 31,500 780 Climbing Houston Center
09:10AM 31.3267 -92.8561 298° West 395 455 32,000 240 Climbing Houston Center
09:11AM 31.3783 -92.9733 297° West 401 461 32,000  Level Houston Center
09:12AM 31.4397 -93.1111 298° West 399 459 32,000  Level Houston Center
09:13AM 31.4900 -93.2261 297° West 398 458 32,000  Level Houston Center
09:14AM 31.5417 -93.3425 298° West 402 463 32,000  Level Houston Center
09:15AM 31.5922 -93.4600 297° West 405 466 32,000  Level Houston Center
09:16AM 31.6283 -93.5611 293° West 398 458 32,000  Level Fort Worth Center
09:17AM 31.6553 -93.6869 284° West 392 451 32,000  Level Fort Worth Center
09:18AM 31.6839 -93.8125 285° West 392 451 32,000  Level Fort Worth Center
09:19AM 31.7083 -93.9386 283° West 397 457 32,000  Level Fort Worth Center
09:20AM 31.7411 -94.0717 286° West 397 457 32,000  Level Fort Worth Center
09:21AM 31.7675 -94.1978 284° West 397 457 32,000  Level Fort Worth Center
09:22AM 31.7956 -94.3264 284° West 397 457 32,000  Level Fort Worth Center
09:23AM 31.8236 -94.4525 285° West 397 457 32,000  Level Fort Worth Center
09:24AM 31.8494 -94.5789 284° West 397 457 32,000  Level Fort Worth Center
09:25AM 31.8753 -94.7053 284° West 397 457 32,000  Level Fort Worth Center
09:26AM 31.9008 -94.8244 284° West 403 464 32,000  Level Fort Worth Center
09:27AM 31.9283 -94.9533 284° West 408 470 32,000  Level Fort Worth Center
09:28AM 31.9558 -95.0822 284° West 413 475 32,000  Level Fort Worth Center
09:29AM 31.9814 -95.2139 283° West 413 475 32,000  Level Fort Worth Center
09:30AM 32.0083 -95.3408 284° West 413 475 32,000 -60 Level Fort Worth Center
09:31AM 32.0397 -95.4722 286° West 413 475 31,900 -1,320 Descending Fort Worth Center
09:32AM 32.0833 -95.5964 293° West 413 475 29,400 -2,640 Descending Fort Worth Center
09:33AM 32.1289 -95.7158 294° West 413 475 26,700 -2,760 Descending Fort Worth Center
09:34AM 32.1744 -95.8450 293° West 419 482 23,900 -2,760 Descending Fort Worth Center
09:35AM 32.2156 -95.9744 291° West 419 482 21,200 -2,700 Descending Fort Worth Center
09:36AM 32.2586 -96.0942 293° West 404 465 18,500 -2,520 Descending Fort Worth Center
09:37AM 32.3039 -96.2239 292° West 397 457 16,200 -1,860 Descending Fort Worth Center
09:38AM 32.3403 -96.3289 292° West 381 438 14,800 -1,500 Descending Fort Worth Center
09:39AM 32.3786 -96.4417 292° West 365 420 13,300 -1,440 Descending Fort Worth Center
09:40AM 32.4378 -96.5200 312° West 345 397 12,000 -1,200 Descending Fort Worth Center
09:41AM 32.5197 -96.6150 316° Northwest 367 422 11,000 -540 Descending Fort Worth Center
09:42AM 32.5850 -96.6911 316° Northwest 367 422 11,000  Level Fort Worth Center
09:43AM 32.6647 -96.7867 315° West 367 422 11,000  Level Fort Worth Center
09:44AM 32.7256 -96.8578 315° West 359 413 11,000  Level Fort Worth Center
09:45AM 32.7781 -96.9317 310° West 290 334 11,000  Level Fort Worth Center
09:46AM 32.8000 -96.9667 307° West 244 281 11,000 -840 Level Dallas / Fort Worth TRACON
09:47AM 32.8500 -97.0333 312° West 289 333 9,700 -1,500 Descending Dallas / Fort Worth TRACON
09:49AM 32.9644 -97.1286 325° Northwest 225 259 6,100 -1,140 Descending Fort Worth Center
09:50AM 33.0292 -97.1333 356° North 229 264 6,000 -600 Descending Fort Worth Center
09:51AM 33.1025 -97.1506 349° North 235 270 5,000 -780 Descending Fort Worth Center
09:53AM 33.2000 -97.1000 23° Northeast 238 274 4,000 -600 Descending Dallas / Fort Worth TRACON